createdAt,value
2022-10-05T00:00:59.004Z,82.32
2022-10-05T00:03:33.357Z,82.13
2022-10-05T00:06:00.212Z,81.33
2022-10-05T00:08:32.138Z,82.22
2022-10-05T00:10:59.196Z,82.53
2022-10-05T00:13:28.771Z,82.35
2022-10-05T00:16:16.835Z,81.80
2022-10-05T00:18:49.207Z,81.67
2022-10-05T00:21:20.160Z,81.46
2022-10-05T00:23:47.172Z,82.32
2022-10-05T00:26:20.437Z,81.18
2022-10-05T00:28:47.686Z,79.49
2022-10-05T00:31:20.341Z,80.47
2022-10-05T00:33:47.705Z,79.42
2022-10-05T00:36:14.581Z,80.70
2022-10-05T00:38:42.357Z,80.84
2022-10-05T00:41:18.710Z,80.66
2022-10-05T00:44:03.980Z,81.09
2022-10-05T00:46:57.098Z,81.36
2022-10-05T00:49:41.515Z,80.57
2022-10-05T00:52:46.784Z,81.14
2022-10-05T00:55:27.926Z,81.42
2022-10-05T00:58:19.882Z,81.62
2022-10-05T01:01:07.610Z,82.05
2022-10-05T01:03:52.313Z,81.68
2022-10-05T01:06:33.867Z,80.66
2022-10-05T01:09:15.663Z,80.18
2022-10-05T01:12:00.463Z,79.75
2022-10-05T01:14:51.240Z,79.17
2022-10-05T01:17:32.763Z,78.54
2022-10-05T01:20:11.659Z,78.95
2022-10-05T01:22:56.892Z,76.98
2022-10-05T01:25:31.685Z,77.81
2022-10-05T01:28:17.265Z,78.91
2022-10-05T01:30:52.921Z,78.69
2022-10-05T01:33:29.042Z,78.38
2022-10-05T01:36:14.562Z,79.40
2022-10-05T01:39:02.505Z,79.06
2022-10-05T01:41:37.776Z,78.65
2022-10-05T01:44:17.916Z,78.32
2022-10-05T01:47:00.328Z,77.81
2022-10-05T01:49:43.345Z,78.55
2022-10-05T01:52:37.490Z,78.31
2022-10-05T01:55:17.585Z,77.90
2022-10-05T01:58:04.915Z,76.86
2022-10-05T02:00:38.818Z,78.34
2022-10-05T02:03:16.192Z,78.80
2022-10-05T02:05:57.867Z,78.79
2022-10-05T02:08:37.823Z,79.50
2022-10-05T02:11:15.083Z,77.46
2022-10-05T02:13:58.146Z,78.31
2022-10-05T02:16:38.777Z,80.54
2022-10-05T02:19:10.486Z,82.07
2022-10-05T02:21:41.213Z,82.30
2022-10-05T02:24:15.460Z,81.53
2022-10-05T02:26:42.384Z,83.69
2022-10-05T02:29:13.195Z,83.07
2022-10-05T02:31:47.624Z,82.15
2022-10-05T02:34:35.856Z,81.31
2022-10-05T02:37:27.886Z,80.10
2022-10-05T02:40:22.793Z,79.90
2022-10-05T02:43:07.963Z,80.82
2022-10-05T02:45:43.516Z,80.59
2022-10-05T02:48:44.510Z,80.90
2022-10-05T02:51:11.109Z,81.34
2022-10-05T02:53:58.907Z,81.85
2022-10-05T02:56:34.712Z,80.83
2022-10-05T02:59:08.170Z,79.62
2022-10-05T03:01:41.155Z,77.90
2022-10-05T03:04:20.118Z,78.78
2022-10-05T03:06:58.917Z,80.25
2022-10-05T03:09:28.922Z,80.74
2022-10-05T03:12:24.990Z,80.40
2022-10-05T03:15:07.739Z,81.13
2022-10-05T03:17:49.047Z,81.63
2022-10-05T03:20:42.422Z,82.23
2022-10-05T03:23:24.952Z,81.00
2022-10-05T03:26:19.074Z,80.94
2022-10-05T03:29:06.795Z,81.28
2022-10-05T03:31:36.275Z,81.90
2022-10-05T03:34:13.890Z,81.67
2022-10-05T03:37:00.590Z,81.28
2022-10-05T03:39:39.593Z,80.66
2022-10-05T03:42:10.350Z,79.45
2022-10-05T03:44:56.887Z,79.27
2022-10-05T03:47:33.693Z,78.86
2022-10-05T03:50:15.564Z,78.17
2022-10-05T03:53:05.996Z,78.17
2022-10-05T03:55:46.866Z,78.53
2022-10-05T03:58:29.330Z,78.71
2022-10-05T04:01:03.622Z,79.59
2022-10-05T04:03:34.114Z,79.39
2022-10-05T04:06:18.686Z,79.31
2022-10-05T04:08:56.126Z,78.11
2022-10-05T04:11:29.841Z,77.46
2022-10-05T04:14:11.043Z,77.11
2022-10-05T04:16:49.439Z,77.90
2022-10-05T04:19:24.462Z,79.72
2022-10-05T04:21:56.073Z,78.67
2022-10-05T04:24:55.934Z,78.87
2022-10-05T04:27:36.672Z,79.56
2022-10-05T04:30:16.092Z,78.42
2022-10-05T04:32:58.304Z,79.37
2022-10-05T04:35:48.378Z,79.34
2022-10-05T04:38:15.941Z,79.58
2022-10-05T04:41:03.205Z,80.01
2022-10-05T04:43:55.103Z,80.75
2022-10-05T04:46:40.631Z,80.22
2022-10-05T04:49:39.221Z,81.30
2022-10-05T04:52:23.585Z,82.09
2022-10-05T04:55:08.696Z,83.16
2022-10-05T04:57:45.753Z,82.68
2022-10-05T05:00:37.036Z,81.98
2022-10-05T05:03:24.566Z,82.45
2022-10-05T05:06:22.645Z,84.10
2022-10-05T05:09:08.554Z,84.05
2022-10-05T05:12:10.688Z,84.31
2022-10-05T05:14:52.733Z,84.34
2022-10-05T05:17:38.117Z,84.53
2022-10-05T05:20:31.306Z,84.45
2022-10-05T05:23:20.908Z,84.01
2022-10-05T05:26:04.578Z,83.90
2022-10-05T05:28:58.304Z,84.23
2022-10-05T05:31:45.782Z,84.24
2022-10-05T05:34:34.432Z,84.97
2022-10-05T05:37:29.041Z,84.82
2022-10-05T05:40:10.850Z,84.27
2022-10-05T05:42:43.336Z,85.15
2022-10-05T05:45:42.143Z,86.10
2022-10-05T05:48:28.273Z,85.46
2022-10-05T05:51:15.170Z,87.29
2022-10-05T05:53:47.546Z,87.77
2022-10-05T05:56:23.905Z,87.59
2022-10-05T05:59:03.290Z,87.52
2022-10-05T06:01:34.312Z,87.60
2022-10-05T06:04:15.598Z,87.13
2022-10-05T06:06:53.902Z,87.97
2022-10-05T06:09:39.858Z,87.82
2022-10-05T06:12:47.578Z,86.61
2022-10-05T06:15:22.028Z,85.77
2022-10-05T06:18:01.254Z,86.39
2022-10-05T06:20:42.478Z,86.11
2022-10-05T06:23:23.327Z,86.01
2022-10-05T06:26:11.103Z,85.83
2022-10-05T06:28:39.766Z,85.82
2022-10-05T06:31:19.654Z,84.06
2022-10-05T06:33:53.684Z,84.96
2022-10-05T06:36:50.576Z,83.06
2022-10-05T06:39:30.651Z,82.38
2022-10-05T06:42:07.732Z,81.51
2022-10-05T06:45:14.943Z,81.26
2022-10-05T06:48:18.579Z,82.34
2022-10-05T06:51:51.450Z,82.49
2022-10-05T06:54:46.065Z,82.79
2022-10-05T06:57:43.839Z,83.01
2022-10-05T07:00:17.088Z,84.50
2022-10-05T07:02:59.077Z,85.50
2022-10-05T07:05:45.054Z,85.23
2022-10-05T07:08:16.055Z,84.96
2022-10-05T07:11:06.279Z,85.24
2022-10-05T07:14:00.465Z,85.60
2022-10-05T07:17:04.800Z,85.43
2022-10-05T07:19:54.741Z,82.93
2022-10-05T07:22:47.078Z,81.25
2022-10-05T07:25:20.287Z,80.56
2022-10-05T07:27:57.652Z,79.95
2022-10-05T07:30:24.597Z,80.11
2022-10-05T07:33:10.111Z,79.49
2022-10-05T07:36:12.818Z,80.25
2022-10-05T07:39:04.488Z,81.66
2022-10-05T07:41:48.490Z,81.17
2022-10-05T07:44:33.211Z,81.03
2022-10-05T07:47:15.271Z,79.90
2022-10-05T07:49:50.171Z,78.44
2022-10-05T07:52:26.097Z,78.03
2022-10-05T07:55:01.901Z,78.54
2022-10-05T07:57:50.041Z,78.58
2022-10-05T08:00:23.715Z,78.69
2022-10-05T08:03:02.763Z,78.86
2022-10-05T08:05:32.056Z,78.11
2022-10-05T08:08:18.205Z,78.25
2022-10-05T08:10:59.949Z,78.85
2022-10-05T08:13:34.125Z,78.76
2022-10-05T08:16:04.486Z,78.62
2022-10-05T08:18:44.725Z,78.45
2022-10-05T08:21:12.910Z,79.57
2022-10-05T08:23:51.311Z,79.74
2022-10-05T08:26:40.766Z,80.21
2022-10-05T08:29:47.695Z,80.52
2022-10-05T08:32:32.117Z,80.58
2022-10-05T08:35:20.145Z,80.58
2022-10-05T08:37:49.125Z,80.14
2022-10-05T08:40:18.316Z,79.27
2022-10-05T08:43:22.540Z,78.09
2022-10-05T08:46:13.848Z,77.70
2022-10-05T08:49:00.210Z,75.75
2022-10-05T08:51:55.478Z,74.99
2022-10-05T08:54:26.338Z,73.45
2022-10-05T08:57:10.984Z,72.26
2022-10-05T09:00:00.530Z,71.71
2022-10-05T09:02:30.790Z,70.32
2022-10-05T09:05:34.939Z,68.06
2022-10-05T09:08:20.702Z,67.16
2022-10-05T09:11:06.875Z,65.81
2022-10-05T09:14:01.764Z,65.54
2022-10-05T09:16:44.457Z,64.01
2022-10-05T09:19:34.579Z,63.15
2022-10-05T09:22:15.495Z,63.90
2022-10-05T09:24:58.057Z,65.00
2022-10-05T09:27:38.064Z,65.47
2022-10-05T09:30:16.427Z,65.34
2022-10-05T09:33:14.286Z,65.29
2022-10-05T09:36:05.489Z,65.18
2022-10-05T09:38:53.235Z,65.49
2022-10-05T09:42:10.108Z,65.00
2022-10-05T09:45:00.072Z,65.52
2022-10-05T09:47:45.180Z,65.04
2022-10-05T09:50:51.929Z,64.12
2022-10-05T09:53:30.366Z,63.03
2022-10-05T09:56:05.944Z,62.28
2022-10-05T09:58:57.230Z,62.35
2022-10-05T10:01:59.670Z,62.21
2022-10-05T10:04:44.091Z,61.66
2022-10-05T10:07:35.595Z,61.26
2022-10-05T10:10:23.500Z,60.91
2022-10-05T10:13:08.926Z,60.47
2022-10-05T10:15:44.412Z,60.04
2022-10-05T10:18:59.668Z,60.00
2022-10-05T10:22:05.234Z,59.27
2022-10-05T10:25:01.057Z,59.39
2022-10-05T10:27:39.351Z,59.07
2022-10-05T10:30:19.844Z,58.73
2022-10-05T10:33:03.850Z,58.60
2022-10-05T10:35:39.751Z,57.91
2022-10-05T10:38:15.068Z,57.96
2022-10-05T10:41:26.581Z,57.80
2022-10-05T10:44:30.435Z,58.16
2022-10-05T10:47:18.927Z,57.57
2022-10-05T10:49:59.649Z,57.50
2022-10-05T10:52:58.817Z,57.41
2022-10-05T10:55:38.685Z,58.16
2022-10-05T10:58:37.410Z,58.13
2022-10-05T11:01:23.803Z,58.66
2022-10-05T11:04:36.467Z,58.70
2022-10-05T11:07:24.904Z,58.69
2022-10-05T11:10:09.581Z,59.05
2022-10-05T11:13:07.289Z,59.04
2022-10-05T11:15:58.457Z,59.81
2022-10-05T11:18:33.689Z,59.98
2022-10-05T11:21:21.892Z,59.96
2022-10-05T11:24:25.143Z,60.43
2022-10-05T11:27:09.982Z,60.52
2022-10-05T11:29:51.693Z,60.34
2022-10-05T11:33:02.125Z,60.91
2022-10-05T11:35:58.866Z,61.04
2022-10-05T11:38:49.077Z,61.12
2022-10-05T11:41:52.758Z,61.57
2022-10-05T11:44:31.346Z,61.72
2022-10-05T11:47:19.763Z,60.92
2022-10-05T11:50:11.469Z,60.49
2022-10-05T11:53:13.810Z,61.17
2022-10-05T11:56:14.045Z,61.12
2022-10-05T11:58:50.180Z,61.38
2022-10-05T12:01:41.330Z,60.84
2022-10-05T12:04:16.902Z,60.97
2022-10-05T12:07:07.634Z,61.57
2022-10-05T12:10:08.949Z,61.30
2022-10-05T12:12:44.384Z,61.34
2022-10-05T12:15:25.265Z,61.42
2022-10-05T12:18:17.918Z,62.17
2022-10-05T12:21:15.455Z,60.86
2022-10-05T12:23:54.740Z,61.58
2022-10-05T12:26:34.303Z,61.70
2022-10-05T12:29:13.077Z,61.77
2022-10-05T12:32:04.161Z,60.69
2022-10-05T12:34:51.370Z,61.14
2022-10-05T12:37:42.720Z,60.86
2022-10-05T12:40:26.823Z,59.93
2022-10-05T12:43:26.766Z,60.21
2022-10-05T12:46:04.926Z,60.36
2022-10-05T12:49:09.248Z,59.49
2022-10-05T12:51:46.470Z,59.63
2022-10-05T12:55:03.467Z,60.46
2022-10-05T12:57:49.925Z,59.53
2022-10-05T13:00:22.961Z,59.83
2022-10-05T13:02:57.298Z,57.04
2022-10-05T13:05:29.702Z,58.00
2022-10-05T13:08:18.413Z,57.73
2022-10-05T13:11:23.721Z,58.55
2022-10-05T13:14:07.314Z,57.77
2022-10-05T13:17:03.682Z,57.49
2022-10-05T13:19:40.402Z,57.02
2022-10-05T13:22:14.612Z,57.68
2022-10-05T13:25:08.775Z,55.79
2022-10-05T13:27:41.029Z,57.11
2022-10-05T13:30:16.082Z,56.49
2022-10-05T13:32:52.276Z,55.58
2022-10-05T13:35:24.378Z,55.53
2022-10-05T13:37:56.871Z,55.43
2022-10-05T13:40:23.371Z,54.70
2022-10-05T13:43:02.712Z,55.33
2022-10-05T13:45:55.788Z,54.11
2022-10-05T13:48:46.198Z,54.12
2022-10-05T13:51:23.549Z,54.01
2022-10-05T13:54:00.902Z,53.48
2022-10-05T13:56:34.398Z,53.99
2022-10-05T13:59:28.201Z,54.13
2022-10-05T14:02:02.025Z,53.37
2022-10-05T14:04:42.414Z,53.49
2022-10-05T14:07:34.071Z,53.44
2022-10-05T14:10:02.330Z,53.22
2022-10-05T14:12:28.843Z,53.35
2022-10-05T14:14:57.671Z,53.47
2022-10-05T14:17:36.802Z,53.82
2022-10-05T14:20:25.570Z,53.45
2022-10-05T14:23:01.780Z,52.12
2022-10-05T14:25:31.790Z,52.80
2022-10-05T14:28:02.540Z,52.30
2022-10-05T14:30:31.979Z,52.75
2022-10-05T14:33:04.462Z,53.08
2022-10-05T14:35:53.944Z,53.25
2022-10-05T14:38:26.262Z,53.47
2022-10-05T14:41:07.896Z,53.75
2022-10-05T14:43:34.946Z,54.18
2022-10-05T14:46:14.782Z,53.51
2022-10-05T14:48:43.117Z,53.35
2022-10-05T14:51:11.968Z,52.78
2022-10-05T14:53:43.471Z,52.37
2022-10-05T14:56:22.969Z,52.69
2022-10-05T14:59:22.144Z,53.25
2022-10-05T15:02:02.043Z,53.88
2022-10-05T15:04:47.566Z,53.99
2022-10-05T15:07:24.834Z,54.15
2022-10-05T15:12:48.258Z,54.43
2022-10-05T15:15:27.048Z,54.51
2022-10-05T15:18:04.974Z,54.40
2022-10-05T15:20:41.497Z,53.96
2022-10-05T15:23:13.913Z,53.34
2022-10-05T15:25:50.217Z,54.19
2022-10-05T15:28:37.691Z,54.23
2022-10-05T15:31:14.396Z,54.43
2022-10-05T15:33:57.355Z,54.16
2022-10-05T15:36:39.139Z,54.40
2022-10-05T15:39:08.189Z,54.71
2022-10-05T15:41:56.463Z,54.92
2022-10-05T15:44:43.978Z,55.35
2022-10-05T15:47:20.739Z,55.32
2022-10-05T15:50:01.902Z,56.00
2022-10-05T15:52:46.217Z,55.67
2022-10-05T15:55:42.846Z,55.91
2022-10-05T15:58:31.307Z,56.08
2022-10-05T16:01:10.579Z,56.11
2022-10-05T16:03:54.337Z,56.16
2022-10-05T16:07:11.818Z,56.16
2022-10-05T16:10:08.976Z,56.98
2022-10-05T16:13:09.285Z,56.81
2022-10-05T16:16:12.555Z,56.37
2022-10-05T16:18:55.160Z,56.56
2022-10-05T16:21:57.818Z,56.71
2022-10-05T16:24:54.520Z,57.01
2022-10-05T16:27:39.186Z,56.88
2022-10-05T16:30:11.518Z,57.17
2022-10-05T16:33:04.651Z,57.41
2022-10-05T16:35:46.519Z,57.69
2022-10-05T16:38:24.786Z,58.26
2022-10-05T16:41:09.998Z,58.20
2022-10-05T16:43:58.032Z,58.09
2022-10-05T16:46:48.048Z,58.56
2022-10-05T16:49:43.701Z,58.68
2022-10-05T16:52:15.716Z,58.79
2022-10-05T16:54:52.570Z,59.05
2022-10-05T16:57:35.169Z,59.56
2022-10-05T17:00:45.628Z,58.92
2022-10-05T17:03:12.457Z,58.72
2022-10-05T17:06:03.849Z,58.03
2022-10-05T17:08:49.669Z,57.76
2022-10-05T17:11:34.865Z,58.42
2022-10-05T17:14:07.342Z,58.45
2022-10-05T17:16:54.983Z,57.90
2022-10-05T17:19:40.220Z,57.93
2022-10-05T17:22:39.609Z,57.91
2022-10-05T17:25:24.142Z,58.55
2022-10-05T17:27:55.280Z,58.22
2022-10-05T17:30:28.337Z,58.21
2022-10-05T17:33:14.012Z,58.38
2022-10-05T17:35:51.794Z,58.33
2022-10-05T17:38:41.665Z,58.50
2022-10-05T17:41:11.816Z,58.74
2022-10-05T17:43:38.956Z,58.52
2022-10-05T17:46:09.166Z,58.95
2022-10-05T17:48:54.174Z,59.19
2022-10-05T17:51:48.330Z,59.51
2022-10-05T17:54:44.477Z,59.87
2022-10-05T17:57:10.965Z,60.06
2022-10-05T17:59:46.291Z,60.44
2022-10-05T18:02:36.171Z,60.82
2022-10-05T18:05:12.354Z,60.95
2022-10-05T18:07:40.295Z,61.23
2022-10-05T18:10:09.733Z,61.55
2022-10-05T18:12:36.045Z,61.71
2022-10-05T18:15:05.451Z,61.68
2022-10-05T18:17:51.038Z,61.92
2022-10-05T18:20:28.645Z,62.09
2022-10-05T18:23:01.016Z,62.22
2022-10-05T18:25:49.307Z,62.22
2022-10-05T18:28:40.670Z,62.53
2022-10-05T18:31:46.650Z,62.73
2022-10-05T18:34:22.070Z,62.88
2022-10-05T18:36:57.649Z,62.78
2022-10-05T18:39:43.333Z,62.76
2022-10-05T18:42:31.545Z,63.21
2022-10-05T18:45:04.017Z,63.38
2022-10-05T18:47:40.894Z,63.23
2022-10-05T18:50:33.706Z,63.59
2022-10-05T18:53:19.022Z,63.45
2022-10-05T18:55:53.205Z,63.54
2022-10-05T18:58:36.658Z,63.81
2022-10-05T19:01:21.309Z,63.86
2022-10-05T19:04:04.481Z,64.10
2022-10-05T19:06:42.019Z,63.91
2022-10-05T19:09:34.750Z,63.94
2022-10-05T19:12:26.323Z,64.12
2022-10-05T19:15:01.103Z,64.29
2022-10-05T19:18:01.528Z,64.23
2022-10-05T19:20:37.283Z,64.20
2022-10-05T19:23:18.505Z,64.13
2022-10-05T19:25:54.726Z,64.46
2022-10-05T19:28:38.640Z,64.35
2022-10-05T19:31:22.784Z,64.41
2022-10-05T19:34:05.153Z,64.44
2022-10-05T19:36:44.825Z,64.13
2022-10-05T19:39:47.525Z,64.58
2022-10-05T19:42:30.527Z,64.17
2022-10-05T19:45:21.574Z,64.27
2022-10-05T19:48:05.822Z,63.82
2022-10-05T19:50:34.302Z,64.25
2022-10-05T19:53:11.207Z,64.19
2022-10-05T19:55:41.572Z,64.27
2022-10-05T19:58:27.162Z,64.43
2022-10-05T20:00:59.612Z,64.40
2022-10-05T20:03:31.689Z,64.46
2022-10-05T20:06:01.001Z,64.46
2022-10-05T20:08:36.702Z,64.48
2022-10-05T20:11:09.745Z,64.77
2022-10-05T20:13:36.947Z,65.06
2022-10-05T20:16:36.253Z,64.66
2022-10-05T20:19:41.442Z,65.01
2022-10-05T20:22:32.696Z,65.28
2022-10-05T20:25:08.062Z,65.16
2022-10-05T20:27:40.798Z,65.41
2022-10-05T20:30:09.404Z,65.83
2022-10-05T20:32:35.802Z,65.73
2022-10-05T20:35:02.426Z,65.92
2022-10-05T20:37:28.843Z,66.03
2022-10-05T20:39:55.334Z,66.17
2022-10-05T20:42:23.726Z,66.37
2022-10-05T20:44:55.787Z,66.49
2022-10-05T20:47:24.098Z,66.39
2022-10-05T20:49:50.599Z,66.25
2022-10-05T20:52:17.014Z,66.36
2022-10-05T20:54:43.443Z,66.72
2022-10-05T20:57:10.131Z,66.70
2022-10-05T20:59:37.209Z,66.95
2022-10-05T21:02:04.693Z,67.14
2022-10-05T21:04:40.310Z,67.22
2022-10-05T21:07:08.137Z,67.30
2022-10-05T21:09:34.637Z,67.52
2022-10-05T21:12:01.139Z,67.33
2022-10-05T21:14:30.509Z,67.88
2022-10-05T21:16:56.923Z,67.97
2022-10-05T21:19:23.390Z,68.06
2022-10-05T21:21:49.918Z,68.01
2022-10-05T21:24:17.300Z,68.15
2022-10-05T21:26:44.591Z,68.76
2022-10-05T21:29:12.933Z,68.92
2022-10-05T21:31:39.962Z,69.28
2022-10-05T21:34:06.902Z,69.50
2022-10-05T21:36:33.394Z,69.63
2022-10-05T21:39:00.241Z,70.01
2022-10-05T21:41:27.036Z,70.13
2022-10-05T21:43:53.574Z,70.22
2022-10-05T21:46:22.753Z,70.25
2022-10-05T21:48:49.895Z,69.96
2022-10-05T21:51:18.823Z,69.92
2022-10-05T21:54:03.941Z,70.16
2022-10-05T21:56:35.455Z,70.49
2022-10-05T21:59:04.869Z,70.41
2022-10-05T22:01:31.387Z,70.59
2022-10-05T22:03:57.958Z,70.59
2022-10-05T22:06:24.677Z,70.46
2022-10-05T22:08:51.102Z,70.44
2022-10-05T22:11:18.033Z,70.98
2022-10-05T22:13:47.933Z,70.98
2022-10-05T22:16:16.412Z,71.92
2022-10-05T22:18:43.473Z,72.40
2022-10-05T22:21:12.472Z,72.31
2022-10-05T22:23:44.787Z,71.65
2022-10-05T22:26:14.291Z,72.01
2022-10-05T22:28:42.342Z,72.12
2022-10-05T22:31:10.291Z,71.96
2022-10-05T22:33:37.120Z,72.47
2022-10-05T22:36:05.463Z,72.56
2022-10-05T22:38:32.234Z,72.10
2022-10-05T22:40:58.731Z,72.12
2022-10-05T22:43:28.610Z,72.03
2022-10-05T22:45:55.934Z,72.43
2022-10-05T22:48:22.450Z,72.42
2022-10-05T22:50:49.217Z,73.29
2022-10-05T22:53:16.067Z,73.09
2022-10-05T22:55:42.545Z,73.15
2022-10-05T22:58:08.937Z,73.38
2022-10-05T23:00:56.858Z,73.56
2022-10-05T23:03:21.969Z,73.41
2022-10-05T23:05:55.424Z,74.07
2022-10-05T23:08:21.823Z,73.85
2022-10-05T23:10:48.290Z,74.01
2022-10-05T23:13:15.237Z,73.79
2022-10-05T23:15:42.387Z,73.95
2022-10-05T23:18:08.830Z,74.52
2022-10-05T23:20:35.227Z,74.75
2022-10-05T23:23:01.718Z,74.65
2022-10-05T23:25:28.190Z,75.02
2022-10-05T23:27:54.674Z,74.92
2022-10-05T23:30:21.260Z,75.03
2022-10-05T23:32:47.644Z,75.45
2022-10-05T23:35:14.172Z,75.94
2022-10-05T23:37:43.154Z,76.49
2022-10-05T23:40:12.911Z,76.30
2022-10-05T23:42:40.098Z,75.96
2022-10-05T23:45:08.426Z,76.46
2022-10-05T23:47:34.900Z,76.49
2022-10-05T23:50:01.588Z,76.48
2022-10-05T23:52:28.033Z,76.78
2022-10-05T23:54:54.443Z,76.73
2022-10-05T23:57:21.512Z,76.55
2022-10-05T23:59:50.199Z,76.80
